Etusivu
METAR-TAF:

METAR-TAF

Lentoasemat :

Matagami, Quebec, Kanada

Leveyspiiri: 49-46N, Pituuspiiri: 077-49W, korkeus merenpinnasta: 281 m

Tämänhetkinen sää

Tämä raportti tehtiin 31 minuuttia sitten, kello 10.14 UTC
Tuuli 5 kn lännestä
Lämpötila -12°C
Kosteus 92%
Ilmanpaine 1013 hPa
Näkyvyys: 14.5 km
Muutamia pilviä 3900 ft:n korkeudessa
Hajonneita pilviä 12000 ft:n korkeudessa
Hajonneita pilviä 15000 ft:n korkeudessa
heikkoa lumisadetta

METAR: CYNM 061014Z AUTO 27005KT 9SM -SN FEW039 BKN120 BKN150 M12/M13 A2990 RMK SLP149

Aika: 05:45 (10:45 UTC)


TAF: puuttuu

Säähavainnot ja -ennusteet yli 4000 lentoasemalta (METAR- ja TAF-raportit).

Käytössä olevat sääasemat on merkitty karttaan keltaisilla ja punaisilla pisteillä.

Aseta hiiri pisteen päälle nähdäksesi sääaseman nimen.

Klikkaa sitten nähdäksesi säähavainnot ja -ennusteet.

Kartan vaihtaminen: klikkaa mustalla rastilla varustettuja vihreitä pisteitä, niin voit zoomata sisään; viivalla varustettua vihreää pistettä, niin voit zoomata ulos tai vihreitä nuolia, niin pääset viereisille kartoille.


METAR-TAF: